C6042 KPIE-KPIE
Flight info
| Callsign | C6042 |
|---|---|
| Flight time | N/A |
| Altitude | 1000 |
| Route | VFR |
| Aircraft | H6/L-SDGRY/C |
Departure
| Time | 2026-05-08 17:36 |
|---|---|
| Airport | St. Petersburg Clearwater International Airport (KPIE) |
Arrival
| Time | N/A |
|---|---|
| Airport | St. Petersburg Clearwater International Airport (KPIE) |
| Time | Latitude | Longitude | Altitude | Speed | Heading |
|---|---|---|---|---|---|
| 2026-05-08 17:03 | 27.91302 | -82.69476 | 20 ft | 0 kts | 133° |
| 2026-05-08 17:09 | 27.91301 | -82.69475 | 23 ft | 1 kts | 127° |
| 2026-05-08 17:09 | 27.91302 | -82.69474 | 25 ft | 1 kts | 348° |
| 2026-05-08 17:10 | 27.91304 | -82.69475 | 53 ft | 1 kts | 348° |
| 2026-05-08 17:10 | 27.91308 | -82.69476 | 22 ft | 0 kts | 347° |
| 2026-05-08 17:11 | 27.91311 | -82.69477 | 33 ft | 4 kts | 347° |
| 2026-05-08 17:11 | 27.91415 | -82.69544 | 160 ft | 37 kts | 328° |
| 2026-05-08 17:11 | 27.91794 | -82.69813 | 408 ft | 90 kts | 326° |
| 2026-05-08 17:12 | 27.92437 | -82.70287 | 578 ft | 126 kts | 325° |
| 2026-05-08 17:12 | 27.93175 | -82.70839 | 507 ft | 126 kts | 326° |
| 2026-05-08 17:12 | 27.93921 | -82.71382 | 531 ft | 131 kts | 324° |
| 2026-05-08 17:12 | 27.94644 | -82.71953 | 549 ft | 129 kts | 324° |
| 2026-05-08 17:13 | 27.95365 | -82.72499 | 557 ft | 130 kts | 324° |
| 2026-05-08 17:13 | 27.96089 | -82.73045 | 563 ft | 122 kts | 324° |
| 2026-05-08 17:13 | 27.96809 | -82.73586 | 548 ft | 120 kts | 324° |
| 2026-05-08 17:13 | 27.97527 | -82.74132 | 570 ft | 125 kts | 324° |
| 2026-05-08 17:14 | 27.98235 | -82.74676 | 571 ft | 125 kts | 324° |
| 2026-05-08 17:14 | 27.98900 | -82.75196 | 563 ft | 129 kts | 324° |
| 2026-05-08 17:14 | 27.99625 | -82.75753 | 571 ft | 130 kts | 324° |
| 2026-05-08 17:14 | 28.00378 | -82.76353 | 581 ft | 131 kts | 324° |
| 2026-05-08 17:15 | 28.01107 | -82.76916 | 583 ft | 129 kts | 324° |
| 2026-05-08 17:15 | 28.01914 | -82.77447 | 576 ft | 130 kts | 329° |
| 2026-05-08 17:15 | 28.02659 | -82.77912 | 573 ft | 128 kts | 329° |
| 2026-05-08 17:15 | 28.03445 | -82.78410 | 576 ft | 131 kts | 329° |
| 2026-05-08 17:16 | 28.04233 | -82.78900 | 574 ft | 137 kts | 329° |
| 2026-05-08 17:16 | 28.05028 | -82.79394 | 569 ft | 127 kts | 329° |
| 2026-05-08 17:16 | 28.05819 | -82.79877 | 568 ft | 129 kts | 329° |
| 2026-05-08 17:16 | 28.06594 | -82.80347 | 569 ft | 129 kts | 329° |
| 2026-05-08 17:17 | 28.07363 | -82.80828 | 573 ft | 128 kts | 329° |
| 2026-05-08 17:17 | 28.08146 | -82.81307 | 577 ft | 128 kts | 329° |
| 2026-05-08 17:17 | 28.08939 | -82.81787 | 582 ft | 126 kts | 329° |
| 2026-05-08 17:17 | 28.09725 | -82.82272 | 583 ft | 127 kts | 329° |
| 2026-05-08 17:18 | 28.10517 | -82.82778 | 565 ft | 131 kts | 329° |
| 2026-05-08 17:18 | 28.11312 | -82.83255 | 560 ft | 132 kts | 329° |
| 2026-05-08 17:18 | 28.12111 | -82.83745 | 563 ft | 133 kts | 329° |
| 2026-05-08 17:18 | 28.12900 | -82.84212 | 566 ft | 130 kts | 328° |
| 2026-05-08 17:19 | 28.13700 | -82.84687 | 567 ft | 126 kts | 330° |
| 2026-05-08 17:19 | 28.14497 | -82.85158 | 567 ft | 128 kts | 330° |
| 2026-05-08 17:19 | 28.15284 | -82.85618 | 568 ft | 128 kts | 330° |
| 2026-05-08 17:19 | 28.16085 | -82.86067 | 562 ft | 127 kts | 330° |
| 2026-05-08 17:20 | 28.16885 | -82.86509 | 552 ft | 128 kts | 330° |
| 2026-05-08 17:20 | 28.17689 | -82.86961 | 556 ft | 130 kts | 330° |
| 2026-05-08 17:20 | 28.18506 | -82.87430 | 551 ft | 132 kts | 332° |
| 2026-05-08 17:20 | 28.19334 | -82.87807 | 552 ft | 129 kts | 334° |
| 2026-05-08 17:21 | 28.20156 | -82.88202 | 564 ft | 126 kts | 334° |
| 2026-05-08 17:21 | 28.20970 | -82.88591 | 559 ft | 129 kts | 334° |
| 2026-05-08 17:21 | 28.21785 | -82.88986 | 564 ft | 125 kts | 334° |
| 2026-05-08 17:21 | 28.22601 | -82.89374 | 550 ft | 131 kts | 334° |
| 2026-05-08 17:22 | 28.23411 | -82.89776 | 554 ft | 123 kts | 334° |
| 2026-05-08 17:22 | 28.24229 | -82.90183 | 558 ft | 129 kts | 334° |
| 2026-05-08 17:22 | 28.25052 | -82.90576 | 554 ft | 130 kts | 334° |
| 2026-05-08 17:22 | 28.25886 | -82.90991 | 553 ft | 130 kts | 334° |
| 2026-05-08 17:23 | 28.26697 | -82.91419 | 557 ft | 136 kts | 332° |
| 2026-05-08 17:23 | 28.27515 | -82.91879 | 562 ft | 127 kts | 332° |
| 2026-05-08 17:23 | 28.28312 | -82.92305 | 562 ft | 125 kts | 332° |
| 2026-05-08 17:23 | 28.29116 | -82.92728 | 554 ft | 126 kts | 332° |
| 2026-05-08 17:24 | 28.29919 | -82.93157 | 564 ft | 129 kts | 332° |
| 2026-05-08 17:24 | 28.30686 | -82.93650 | 600 ft | 117 kts | 306° |
| 2026-05-08 17:24 | 28.31013 | -82.94231 | 431 ft | 58 kts | 262° |
| 2026-05-08 17:24 | 28.31070 | -82.94550 | 210 ft | 31 kts | 259° |
| 2026-05-08 17:25 | 28.31049 | -82.94802 | 191 ft | 36 kts | 236° |
| 2026-05-08 17:25 | 28.30928 | -82.94985 | 194 ft | 23 kts | 256° |
| 2026-05-08 17:25 | 28.30973 | -82.95227 | 161 ft | 36 kts | 304° |
| 2026-05-08 17:25 | 28.31070 | -82.95276 | 112 ft | 15 kts | 31° |
| 2026-05-08 17:26 | 28.31110 | -82.95213 | 76 ft | 8 kts | 331° |
| 2026-05-08 17:26 | 28.31130 | -82.95208 | 61 ft | 2 kts | 314° |
| 2026-05-08 17:26 | 28.31129 | -82.95207 | 53 ft | 0 kts | 311° |
| 2026-05-08 17:29 | 28.31130 | -82.95209 | 72 ft | 3 kts | 334° |
| 2026-05-08 17:29 | 28.31245 | -82.95106 | 186 ft | 50 kts | 81° |
| 2026-05-08 17:29 | 28.31088 | -82.94386 | 354 ft | 125 kts | 111° |
| 2026-05-08 17:30 | 28.30742 | -82.93347 | 496 ft | 155 kts | 114° |
| 2026-05-08 17:30 | 28.30348 | -82.92242 | 477 ft | 149 kts | 114° |
| 2026-05-08 17:30 | 28.29972 | -82.91146 | 491 ft | 150 kts | 114° |
| 2026-05-08 17:30 | 28.29590 | -82.90020 | 489 ft | 157 kts | 114° |
| 2026-05-08 17:31 | 28.29188 | -82.88892 | 490 ft | 153 kts | 114° |
| 2026-05-08 17:31 | 28.28920 | -82.88135 | 489 ft | 155 kts | 114° |
| 2026-05-08 17:31 | 28.28516 | -82.87008 | 493 ft | 155 kts | 114° |
| 2026-05-08 17:31 | 28.28121 | -82.85900 | 487 ft | 149 kts | 114° |
| 2026-05-08 17:32 | 28.27717 | -82.84805 | 500 ft | 153 kts | 113° |
| 2026-05-08 17:32 | 28.27314 | -82.83692 | 499 ft | 153 kts | 112° |
| 2026-05-08 17:32 | 28.26919 | -82.82561 | 485 ft | 153 kts | 112° |
| 2026-05-08 17:32 | 28.26546 | -82.81422 | 498 ft | 156 kts | 111° |
| 2026-05-08 17:33 | 28.26138 | -82.80291 | 500 ft | 157 kts | 115° |
| 2026-05-08 17:33 | 28.25701 | -82.79194 | 503 ft | 152 kts | 113° |
| 2026-05-08 17:33 | 28.25245 | -82.78092 | 487 ft | 158 kts | 115° |
| 2026-05-08 17:33 | 28.24756 | -82.76951 | 466 ft | 159 kts | 114° |
| 2026-05-08 17:34 | 28.24261 | -82.75850 | 424 ft | 160 kts | 115° |
| 2026-05-08 17:34 | 28.23750 | -82.74771 | 404 ft | 153 kts | 118° |
| 2026-05-08 17:34 | 28.23224 | -82.73701 | 411 ft | 155 kts | 120° |
| 2026-05-08 17:34 | 28.22706 | -82.72655 | 410 ft | 151 kts | 120° |
| 2026-05-08 17:35 | 28.22204 | -82.71593 | 408 ft | 150 kts | 120° |
| 2026-05-08 17:35 | 28.21714 | -82.70531 | 409 ft | 153 kts | 120° |
| 2026-05-08 17:35 | 28.21220 | -82.69432 | 412 ft | 155 kts | 120° |
| 2026-05-08 17:35 | 28.20742 | -82.68354 | 400 ft | 148 kts | 118° |
| 2026-05-08 17:36 | 28.20257 | -82.67286 | 428 ft | 152 kts | 117° |
| 2026-05-08 17:36 | 28.19752 | -82.66202 | 509 ft | 156 kts | 118° |
| 2026-05-08 17:36 | 28.19244 | -82.65110 | 595 ft | 156 kts | 118° |
| 2026-05-08 17:36 | 28.18739 | -82.64035 | 703 ft | 155 kts | 117° |
| 2026-05-08 17:37 | 28.18228 | -82.62970 | 819 ft | 155 kts | 119° |
| 2026-05-08 17:37 | 28.17699 | -82.61897 | 915 ft | 157 kts | 120° |
| 2026-05-08 17:37 | 28.17168 | -82.60852 | 995 ft | 153 kts | 120° |
| 2026-05-08 17:37 | 28.16631 | -82.59828 | 1081 ft | 147 kts | 121° |
| 2026-05-08 17:38 | 28.16089 | -82.58828 | 1065 ft | 149 kts | 123° |
| 2026-05-08 17:38 | 28.15529 | -82.57832 | 1001 ft | 152 kts | 124° |
| 2026-05-08 17:38 | 28.14944 | -82.56840 | 946 ft | 150 kts | 122° |
| 2026-05-08 17:38 | 28.14343 | -82.55879 | 936 ft | 148 kts | 123° |
| 2026-05-08 17:39 | 28.13713 | -82.54934 | 901 ft | 150 kts | 126° |
| 2026-05-08 17:39 | 28.13065 | -82.54022 | 889 ft | 149 kts | 128° |
| 2026-05-08 17:39 | 28.12386 | -82.53120 | 875 ft | 153 kts | 130° |
| 2026-05-08 17:39 | 28.11679 | -82.52227 | 874 ft | 152 kts | 131° |
| 2026-05-08 17:40 | 28.10986 | -82.51360 | 873 ft | 146 kts | 124° |
| 2026-05-08 17:40 | 28.10393 | -82.50405 | 848 ft | 155 kts | 124° |
| 2026-05-08 17:40 | 28.09814 | -82.49415 | 838 ft | 150 kts | 123° |
| 2026-05-08 17:40 | 28.09242 | -82.48415 | 802 ft | 153 kts | 125° |
| 2026-05-08 17:41 | 28.08686 | -82.47419 | 612 ft | 137 kts | 110° |
| 2026-05-08 17:41 | 28.08588 | -82.46443 | 593 ft | 118 kts | 91° |
| 2026-05-08 17:41 | 28.08420 | -82.45524 | 541 ft | 122 kts | 115° |
| 2026-05-08 17:41 | 28.08049 | -82.44619 | 473 ft | 133 kts | 116° |
| 2026-05-08 17:42 | 28.07679 | -82.43651 | 424 ft | 135 kts | 114° |
| 2026-05-08 17:42 | 28.07411 | -82.42865 | 386 ft | 78 kts | 93° |
| 2026-05-08 17:42 | 28.07329 | -82.42512 | 324 ft | 13 kts | 93° |
| 2026-05-08 17:42 | 28.07297 | -82.42480 | 285 ft | 21 kts | 152° |
| 2026-05-08 17:43 | 28.07222 | -82.42420 | 297 ft | 14 kts | 136° |
| 2026-05-08 17:43 | 28.07140 | -82.42323 | 203 ft | 16 kts | 122° |
| 2026-05-08 17:43 | 28.07079 | -82.42244 | 119 ft | 14 kts | 90° |
| 2026-05-08 17:43 | 28.07046 | -82.42219 | 74 ft | 5 kts | 276° |
| 2026-05-08 17:44 | 28.07052 | -82.42228 | 48 ft | 0 kts | 306° |
| 2026-05-08 17:44 | 28.07053 | -82.42229 | 46 ft | 0 kts | 307° |
| 2026-05-08 17:46 | 28.07058 | -82.42234 | 102 ft | 5 kts | 276° |
| 2026-05-08 17:46 | 28.07059 | -82.42417 | 341 ft | 45 kts | 270° |
| 2026-05-08 17:46 | 28.07047 | -82.42971 | 717 ft | 94 kts | 266° |
| 2026-05-08 17:46 | 28.07038 | -82.43827 | 903 ft | 121 kts | 269° |
| 2026-05-08 17:47 | 28.07018 | -82.44791 | 999 ft | 124 kts | 269° |
| 2026-05-08 17:47 | 28.06990 | -82.45770 | 989 ft | 125 kts | 268° |
| 2026-05-08 17:47 | 28.06945 | -82.46744 | 986 ft | 123 kts | 267° |
| 2026-05-08 17:47 | 28.06920 | -82.47398 | 971 ft | 124 kts | 267° |
| 2026-05-08 17:48 | 28.06891 | -82.48683 | 981 ft | 121 kts | 267° |
| 2026-05-08 17:48 | 28.06879 | -82.49634 | 984 ft | 126 kts | 267° |
| 2026-05-08 17:48 | 28.06777 | -82.50673 | 988 ft | 132 kts | 262° |
| 2026-05-08 17:48 | 28.06637 | -82.51676 | 999 ft | 127 kts | 254° |
| 2026-05-08 17:49 | 28.06227 | -82.52562 | 985 ft | 131 kts | 237° |
| 2026-05-08 17:49 | 28.05703 | -82.53378 | 966 ft | 133 kts | 236° |
| 2026-05-08 17:49 | 28.05160 | -82.54208 | 902 ft | 130 kts | 236° |
| 2026-05-08 17:49 | 28.04657 | -82.54984 | 830 ft | 132 kts | 236° |
| 2026-05-08 17:50 | 28.04111 | -82.55833 | 826 ft | 132 kts | 236° |
| 2026-05-08 17:50 | 28.03573 | -82.56661 | 681 ft | 127 kts | 236° |
| 2026-05-08 17:50 | 28.03045 | -82.57485 | 666 ft | 130 kts | 236° |
| 2026-05-08 17:50 | 28.02562 | -82.58254 | 676 ft | 131 kts | 236° |
| 2026-05-08 17:51 | 28.02048 | -82.59074 | 685 ft | 126 kts | 236° |
| 2026-05-08 17:51 | 28.01535 | -82.59846 | 1065 ft | 122 kts | 236° |
| 2026-05-08 17:51 | 28.01006 | -82.60686 | 1004 ft | 134 kts | 236° |
| 2026-05-08 17:51 | 28.00458 | -82.61544 | 987 ft | 134 kts | 236° |
| 2026-05-08 17:52 | 27.99932 | -82.62391 | 926 ft | 134 kts | 236° |
| 2026-05-08 17:52 | 27.99395 | -82.63254 | 876 ft | 134 kts | 235° |
| 2026-05-08 17:52 | 27.98318 | -82.64830 | 756 ft | 113 kts | 235° |
| 2026-05-08 17:53 | 27.97739 | -82.65644 | 938 ft | 137 kts | 235° |
| 2026-05-08 17:53 | 27.97176 | -82.66525 | 1071 ft | 140 kts | 235° |
| 2026-05-08 17:53 | 27.96608 | -82.67408 | 1065 ft | 134 kts | 235° |
| 2026-05-08 17:53 | 27.96050 | -82.68290 | 1055 ft | 140 kts | 235° |
| 2026-05-08 17:54 | 27.95470 | -82.69200 | 1042 ft | 142 kts | 235° |
| 2026-05-08 17:54 | 27.94887 | -82.70093 | 1035 ft | 140 kts | 235° |
| 2026-05-08 17:54 | 27.94297 | -82.70962 | 1027 ft | 134 kts | 236° |
| 2026-05-08 17:54 | 27.93722 | -82.71817 | 1026 ft | 135 kts | 235° |
| 2026-05-08 17:55 | 27.93160 | -82.72694 | 1026 ft | 137 kts | 235° |
| 2026-05-08 17:55 | 27.92594 | -82.73565 | 1013 ft | 138 kts | 235° |
| 2026-05-08 17:55 | 27.92031 | -82.74431 | 1020 ft | 138 kts | 235° |
| 2026-05-08 17:55 | 27.91443 | -82.75317 | 1019 ft | 132 kts | 235° |
| 2026-05-08 17:56 | 27.90875 | -82.76185 | 1020 ft | 138 kts | 235° |
| 2026-05-08 17:56 | 27.90292 | -82.77057 | 1013 ft | 137 kts | 235° |
| 2026-05-08 17:56 | 27.89719 | -82.77942 | 1016 ft | 137 kts | 235° |
| 2026-05-08 17:56 | 27.89139 | -82.78836 | 1019 ft | 144 kts | 235° |
| 2026-05-08 17:57 | 27.88565 | -82.79728 | 1019 ft | 138 kts | 235° |
| 2026-05-08 17:57 | 27.87989 | -82.80601 | 1014 ft | 142 kts | 235° |
| 2026-05-08 17:57 | 27.87414 | -82.81491 | 1009 ft | 140 kts | 235° |
| 2026-05-08 17:57 | 27.86847 | -82.82395 | 1016 ft | 144 kts | 235° |
| 2026-05-08 17:58 | 27.86286 | -82.83295 | 1018 ft | 139 kts | 235° |
| 2026-05-08 17:58 | 27.85731 | -82.84193 | 1018 ft | 139 kts | 235° |
| 2026-05-08 17:58 | 27.85159 | -82.85104 | 1012 ft | 139 kts | 235° |
| 2026-05-08 17:58 | 27.84589 | -82.86016 | 1019 ft | 139 kts | 235° |
| 2026-05-08 17:59 | 27.84067 | -82.86913 | 1019 ft | 133 kts | 239° |
| 2026-05-08 17:59 | 27.83688 | -82.87854 | 1023 ft | 130 kts | 248° |
| 2026-05-08 17:59 | 27.83364 | -82.88799 | 1016 ft | 128 kts | 249° |
| 2026-05-08 17:59 | 27.83037 | -82.89780 | 995 ft | 145 kts | 249° |
| 2026-05-08 18:00 | 27.82688 | -82.90821 | 1006 ft | 144 kts | 249° |
| 2026-05-08 18:00 | 27.81983 | -82.92873 | 1013 ft | 138 kts | 249° |
| 2026-05-08 18:00 | 27.81633 | -82.93909 | 1016 ft | 139 kts | 249° |
| 2026-05-08 18:01 | 27.81289 | -82.94940 | 1005 ft | 138 kts | 249° |
| 2026-05-08 18:01 | 27.80951 | -82.95974 | 1001 ft | 141 kts | 250° |
| 2026-05-08 18:01 | 27.80625 | -82.96998 | 1004 ft | 139 kts | 251° |
| 2026-05-08 18:01 | 27.80305 | -82.98033 | 1001 ft | 139 kts | 250° |
| 2026-05-08 18:02 | 27.79991 | -82.99079 | 1002 ft | 142 kts | 251° |
| 2026-05-08 18:02 | 27.79784 | -82.99783 | 1006 ft | 138 kts | 251° |
| 2026-05-08 18:02 | 27.79386 | -83.01186 | 995 ft | 139 kts | 252° |
| 2026-05-08 18:02 | 27.79048 | -83.02206 | 999 ft | 138 kts | 247° |
| 2026-05-08 18:03 | 27.78680 | -83.03224 | 997 ft | 141 kts | 248° |
| 2026-05-08 18:03 | 27.78273 | -83.04237 | 987 ft | 142 kts | 239° |
| 2026-05-08 18:03 | 27.77760 | -83.05198 | 993 ft | 142 kts | 241° |
| 2026-05-08 18:03 | 27.77300 | -83.06182 | 995 ft | 143 kts | 242° |
| 2026-05-08 18:04 | 27.76847 | -83.07160 | 994 ft | 141 kts | 243° |
| 2026-05-08 18:04 | 27.76409 | -83.08130 | 992 ft | 141 kts | 243° |
| 2026-05-08 18:04 | 27.75973 | -83.09122 | 997 ft | 140 kts | 244° |
| 2026-05-08 18:04 | 27.75552 | -83.10105 | 989 ft | 138 kts | 244° |
| 2026-05-08 18:05 | 27.75134 | -83.11105 | 990 ft | 143 kts | 244° |
| 2026-05-08 18:05 | 27.74723 | -83.12102 | 995 ft | 139 kts | 245° |
| 2026-05-08 18:05 | 27.74325 | -83.13087 | 896 ft | 137 kts | 245° |
| 2026-05-08 18:05 | 27.73945 | -83.14077 | 671 ft | 137 kts | 245° |
| 2026-05-08 18:06 | 27.73569 | -83.15056 | 463 ft | 136 kts | 246° |
| 2026-05-08 18:06 | 27.73204 | -83.16038 | 412 ft | 135 kts | 245° |
| 2026-05-08 18:06 | 27.72816 | -83.16976 | 318 ft | 124 kts | 233° |
| 2026-05-08 18:06 | 27.72326 | -83.17557 | 307 ft | 68 kts | 253° |
| 2026-05-08 18:07 | 27.72445 | -83.17828 | 301 ft | 14 kts | 2° |
| 2026-05-08 18:07 | 27.72436 | -83.17788 | 189 ft | 2 kts | 21° |
| 2026-05-08 18:07 | 27.72439 | -83.17767 | 148 ft | 7 kts | 15° |
| 2026-05-08 18:07 | 27.72482 | -83.17724 | 124 ft | 8 kts | 13° |
| 2026-05-08 18:08 | 27.72513 | -83.17712 | 120 ft | 4 kts | 9° |
| 2026-05-08 18:08 | 27.72532 | -83.17704 | 109 ft | 3 kts | 223° |
| 2026-05-08 18:08 | 27.72529 | -83.17707 | 98 ft | 0 kts | 215° |
| 2026-05-08 18:08 | 27.72527 | -83.17707 | 92 ft | 1 kts | 213° |
| 2026-05-08 18:09 | 27.72527 | -83.17708 | 90 ft | 0 kts | 213° |
| 2026-05-08 18:11 | 27.72446 | -83.17681 | 144 ft | 34 kts | 115° |
| 2026-05-08 18:11 | 27.72552 | -83.17216 | 255 ft | 100 kts | 73° |
| 2026-05-08 18:11 | 27.72813 | -83.16297 | 479 ft | 142 kts | 76° |
| 2026-05-08 18:11 | 27.73085 | -83.15148 | 634 ft | 162 kts | 77° |
| 2026-05-08 18:12 | 27.73405 | -83.13883 | 807 ft | 171 kts | 76° |
| 2026-05-08 18:12 | 27.73695 | -83.12608 | 733 ft | 171 kts | 76° |
| 2026-05-08 18:12 | 27.73987 | -83.11328 | 816 ft | 168 kts | 76° |
| 2026-05-08 18:12 | 27.74270 | -83.10048 | 813 ft | 166 kts | 76° |
| 2026-05-08 18:13 | 27.74565 | -83.08779 | 811 ft | 170 kts | 76° |
| 2026-05-08 18:13 | 27.74861 | -83.07495 | 814 ft | 167 kts | 76° |
| 2026-05-08 18:13 | 27.75154 | -83.06213 | 809 ft | 166 kts | 76° |
| 2026-05-08 18:13 | 27.75445 | -83.04926 | 814 ft | 165 kts | 76° |
| 2026-05-08 18:14 | 27.75832 | -83.03678 | 816 ft | 168 kts | 70° |
| 2026-05-08 18:14 | 27.76241 | -83.02449 | 813 ft | 167 kts | 70° |
| 2026-05-08 18:14 | 27.76649 | -83.01219 | 807 ft | 166 kts | 70° |
| 2026-05-08 18:14 | 27.77066 | -82.99977 | 818 ft | 171 kts | 70° |
| 2026-05-08 18:15 | 27.77481 | -82.98730 | 820 ft | 168 kts | 70° |
| 2026-05-08 18:15 | 27.77901 | -82.97480 | 814 ft | 171 kts | 70° |
| 2026-05-08 18:15 | 27.78309 | -82.96226 | 816 ft | 169 kts | 70° |
| 2026-05-08 18:15 | 27.78714 | -82.94997 | 818 ft | 166 kts | 70° |
| 2026-05-08 18:16 | 27.79117 | -82.93756 | 819 ft | 169 kts | 70° |
| 2026-05-08 18:16 | 27.79390 | -82.92928 | 815 ft | 169 kts | 70° |
| 2026-05-08 18:16 | 27.79805 | -82.91683 | 816 ft | 170 kts | 70° |
| 2026-05-08 18:16 | 27.80216 | -82.90438 | 816 ft | 169 kts | 70° |
| 2026-05-08 18:17 | 27.80758 | -82.88799 | 816 ft | 171 kts | 70° |
| 2026-05-08 18:17 | 27.81035 | -82.87953 | 818 ft | 167 kts | 70° |
| 2026-05-08 18:17 | 27.81583 | -82.86311 | 823 ft | 169 kts | 70° |
| 2026-05-08 18:17 | 27.81862 | -82.85467 | 818 ft | 167 kts | 70° |
| 2026-05-08 18:18 | 27.82269 | -82.84231 | 823 ft | 171 kts | 70° |
| 2026-05-08 18:18 | 27.82670 | -82.82973 | 822 ft | 171 kts | 70° |
| 2026-05-08 18:18 | 27.83078 | -82.81732 | 819 ft | 165 kts | 70° |
| 2026-05-08 18:18 | 27.83485 | -82.80504 | 829 ft | 168 kts | 69° |
| 2026-05-08 18:19 | 27.83907 | -82.79267 | 826 ft | 168 kts | 70° |
| 2026-05-08 18:19 | 27.84325 | -82.78038 | 828 ft | 169 kts | 69° |
| 2026-05-08 18:19 | 27.84744 | -82.76763 | 823 ft | 168 kts | 70° |
| 2026-05-08 18:19 | 27.85153 | -82.75505 | 825 ft | 170 kts | 70° |
| 2026-05-08 18:20 | 27.85575 | -82.74242 | 822 ft | 170 kts | 67° |
| 2026-05-08 18:20 | 27.86033 | -82.73003 | 825 ft | 172 kts | 67° |
| 2026-05-08 18:20 | 27.86482 | -82.71781 | 824 ft | 167 kts | 67° |
| 2026-05-08 18:20 | 27.86933 | -82.70546 | 825 ft | 168 kts | 67° |
| 2026-05-08 18:21 | 27.87381 | -82.69287 | 826 ft | 173 kts | 67° |
| 2026-05-08 18:21 | 27.87849 | -82.68035 | 820 ft | 172 kts | 67° |
| 2026-05-08 18:21 | 27.88291 | -82.66825 | 821 ft | 169 kts | 67° |
| 2026-05-08 18:21 | 27.88765 | -82.65581 | 826 ft | 171 kts | 67° |
| 2026-05-08 18:22 | 27.89240 | -82.64323 | 826 ft | 171 kts | 66° |
| 2026-05-08 18:22 | 27.89712 | -82.63066 | 825 ft | 168 kts | 67° |
| 2026-05-08 18:22 | 27.90167 | -82.61808 | 822 ft | 175 kts | 67° |
| 2026-05-08 18:22 | 27.90619 | -82.60548 | 825 ft | 175 kts | 67° |
| 2026-05-08 18:23 | 27.91075 | -82.59309 | 819 ft | 168 kts | 67° |
| 2026-05-08 18:23 | 27.91540 | -82.58036 | 816 ft | 174 kts | 67° |
| 2026-05-08 18:23 | 27.92006 | -82.56785 | 813 ft | 170 kts | 66° |
| 2026-05-08 18:23 | 27.92467 | -82.55534 | 814 ft | 170 kts | 67° |
| 2026-05-08 18:24 | 27.92730 | -82.54242 | 814 ft | 170 kts | 87° |
| 2026-05-08 18:24 | 27.92603 | -82.52933 | 825 ft | 166 kts | 99° |
| 2026-05-08 18:24 | 27.92436 | -82.51647 | 819 ft | 165 kts | 99° |
| 2026-05-08 18:24 | 27.92273 | -82.50334 | 822 ft | 172 kts | 99° |
| 2026-05-08 18:25 | 27.92127 | -82.49066 | 550 ft | 152 kts | 100° |
| 2026-05-08 18:25 | 27.92245 | -82.47995 | 350 ft | 132 kts | 59° |
| 2026-05-08 18:25 | 27.92722 | -82.47157 | 283 ft | 118 kts | 44° |
| 2026-05-08 18:25 | 27.93274 | -82.46588 | 270 ft | 89 kts | 35° |
| 2026-05-08 18:26 | 27.93582 | -82.46314 | 226 ft | 23 kts | 28° |
| 2026-05-08 18:26 | 27.93729 | -82.46210 | 164 ft | 30 kts | 32° |
| 2026-05-08 18:26 | 27.93894 | -82.46071 | 108 ft | 24 kts | 38° |
| 2026-05-08 18:26 | 27.93928 | -82.45997 | 47 ft | 2 kts | 90° |
| 2026-05-08 18:27 | 27.93921 | -82.45997 | 65 ft | 6 kts | 80° |
| 2026-05-08 18:27 | 27.93920 | -82.45966 | 35 ft | 4 kts | 55° |
| 2026-05-08 18:27 | 27.93926 | -82.45949 | 18 ft | 1 kts | 36° |
| 2026-05-08 18:27 | 27.93927 | -82.45947 | 12 ft | 0 kts | 37° |
| 2026-05-08 18:29 | 27.93939 | -82.45954 | 66 ft | 6 kts | 351° |
| 2026-05-08 18:29 | 27.94025 | -82.45984 | 257 ft | 20 kts | 349° |
| 2026-05-08 18:30 | 27.94256 | -82.46056 | 488 ft | 49 kts | 344° |
| 2026-05-08 18:30 | 27.94692 | -82.46126 | 808 ft | 76 kts | 345° |
| 2026-05-08 18:30 | 27.95262 | -82.46198 | 942 ft | 84 kts | 347° |
| 2026-05-08 18:30 | 27.95843 | -82.46317 | 964 ft | 86 kts | 349° |
| 2026-05-08 18:31 | 27.96430 | -82.46371 | 948 ft | 85 kts | 349° |
| 2026-05-08 18:31 | 27.96843 | -82.46797 | 925 ft | 96 kts | 285° |
| 2026-05-08 18:31 | 27.96925 | -82.47619 | 923 ft | 104 kts | 272° |
| 2026-05-08 18:31 | 27.96962 | -82.48438 | 928 ft | 109 kts | 270° |
| 2026-05-08 18:32 | 27.96999 | -82.49311 | 921 ft | 112 kts | 271° |
| 2026-05-08 18:32 | 27.97025 | -82.50208 | 940 ft | 114 kts | 270° |
| 2026-05-08 18:32 | 27.97027 | -82.51113 | 943 ft | 116 kts | 267° |
| 2026-05-08 18:32 | 27.97021 | -82.51980 | 939 ft | 118 kts | 269° |
| 2026-05-08 18:33 | 27.97007 | -82.52903 | 925 ft | 118 kts | 268° |
| 2026-05-08 18:33 | 27.96992 | -82.53774 | 935 ft | 118 kts | 268° |
| 2026-05-08 18:33 | 27.96983 | -82.54701 | 948 ft | 119 kts | 268° |
| 2026-05-08 18:33 | 27.96973 | -82.55637 | 936 ft | 119 kts | 268° |
| 2026-05-08 18:34 | 27.96990 | -82.56573 | 946 ft | 119 kts | 266° |
| 2026-05-08 18:34 | 27.96936 | -82.57492 | 937 ft | 117 kts | 265° |
| 2026-05-08 18:34 | 27.96872 | -82.58413 | 935 ft | 118 kts | 265° |
| 2026-05-08 18:34 | 27.96805 | -82.59331 | 943 ft | 117 kts | 265° |
| 2026-05-08 18:35 | 27.96721 | -82.60258 | 945 ft | 116 kts | 265° |
| 2026-05-08 18:35 | 27.96669 | -82.61159 | 931 ft | 115 kts | 265° |
| 2026-05-08 18:35 | 27.96581 | -82.62057 | 949 ft | 115 kts | 265° |
| 2026-05-08 18:35 | 27.96508 | -82.62962 | 947 ft | 115 kts | 265° |
| 2026-05-08 18:36 | 27.96431 | -82.63859 | 951 ft | 114 kts | 265° |
| 2026-05-08 18:36 | 27.96363 | -82.64756 | 949 ft | 115 kts | 265° |
| 2026-05-08 18:36 | 27.96274 | -82.65650 | 954 ft | 114 kts | 265° |
| 2026-05-08 18:36 | 27.96205 | -82.66543 | 953 ft | 114 kts | 265° |
| 2026-05-08 18:37 | 27.96146 | -82.67444 | 956 ft | 115 kts | 265° |
| 2026-05-08 18:37 | 27.96080 | -82.68348 | 952 ft | 115 kts | 265° |
| 2026-05-08 18:37 | 27.96020 | -82.69252 | 958 ft | 115 kts | 265° |
| 2026-05-08 18:37 | 27.95948 | -82.70159 | 936 ft | 115 kts | 265° |
| 2026-05-08 18:38 | 27.95998 | -82.71060 | 931 ft | 119 kts | 285° |
| 2026-05-08 18:38 | 27.96506 | -82.71842 | 947 ft | 124 kts | 307° |
| 2026-05-08 18:38 | 27.97051 | -82.72597 | 944 ft | 124 kts | 307° |
| 2026-05-08 18:38 | 27.97589 | -82.73358 | 925 ft | 129 kts | 307° |
| 2026-05-08 18:39 | 27.98154 | -82.74166 | 929 ft | 133 kts | 307° |
| 2026-05-08 18:39 | 27.98715 | -82.75012 | 928 ft | 135 kts | 307° |
| 2026-05-08 18:39 | 27.99284 | -82.75854 | 907 ft | 135 kts | 307° |
| 2026-05-08 18:39 | 27.99872 | -82.76701 | 932 ft | 139 kts | 307° |
| 2026-05-08 18:40 | 28.00458 | -82.77567 | 946 ft | 139 kts | 307° |
| 2026-05-08 18:40 | 28.01052 | -82.78434 | 951 ft | 140 kts | 307° |
| 2026-05-08 18:40 | 28.01651 | -82.79307 | 943 ft | 142 kts | 307° |
| 2026-05-08 18:40 | 28.02261 | -82.80187 | 940 ft | 142 kts | 307° |
| 2026-05-08 18:41 | 28.02865 | -82.81059 | 924 ft | 140 kts | 307° |
| 2026-05-08 18:41 | 28.03454 | -82.81925 | 895 ft | 138 kts | 307° |
| 2026-05-08 18:41 | 28.04089 | -82.82731 | 872 ft | 139 kts | 321° |
| 2026-05-08 18:41 | 28.04868 | -82.83385 | 918 ft | 140 kts | 322° |
| 2026-05-08 18:42 | 28.05653 | -82.84042 | 969 ft | 140 kts | 322° |
| 2026-05-08 18:42 | 28.06438 | -82.84684 | 993 ft | 139 kts | 322° |
| 2026-05-08 18:42 | 28.07219 | -82.85325 | 953 ft | 139 kts | 322° |
| 2026-05-08 18:42 | 28.08001 | -82.85973 | 955 ft | 139 kts | 322° |
| 2026-05-08 18:43 | 28.08784 | -82.86609 | 948 ft | 139 kts | 322° |
| 2026-05-08 18:43 | 28.09555 | -82.87253 | 933 ft | 137 kts | 322° |
| 2026-05-08 18:43 | 28.10327 | -82.87890 | 939 ft | 137 kts | 322° |
| 2026-05-08 18:43 | 28.11088 | -82.88536 | 955 ft | 136 kts | 322° |
| 2026-05-08 18:44 | 28.11856 | -82.89169 | 877 ft | 140 kts | 322° |
| 2026-05-08 18:44 | 28.12657 | -82.89913 | 477 ft | 153 kts | 317° |
| 2026-05-08 18:44 | 28.13455 | -82.90725 | 413 ft | 161 kts | 317° |
| 2026-05-08 18:44 | 28.14272 | -82.91537 | 501 ft | 158 kts | 317° |
| 2026-05-08 18:45 | 28.15083 | -82.92362 | 476 ft | 161 kts | 317° |
| 2026-05-08 18:45 | 28.15916 | -82.93166 | 479 ft | 151 kts | 318° |
| 2026-05-08 18:45 | 28.16752 | -82.93950 | 464 ft | 157 kts | 318° |
| 2026-05-08 18:45 | 28.17573 | -82.94735 | 457 ft | 154 kts | 318° |
| 2026-05-08 18:46 | 28.18409 | -82.95531 | 466 ft | 153 kts | 318° |
| 2026-05-08 18:46 | 28.19207 | -82.96372 | 420 ft | 168 kts | 309° |
| 2026-05-08 18:46 | 28.19611 | -82.97649 | 381 ft | 175 kts | 278° |
| 2026-05-08 18:46 | 28.19802 | -82.98955 | 500 ft | 150 kts | 279° |
| 2026-05-08 18:47 | 28.19965 | -83.00123 | 482 ft | 159 kts | 279° |
| 2026-05-08 18:47 | 28.20132 | -83.01336 | 459 ft | 152 kts | 279° |
| 2026-05-08 18:47 | 28.20297 | -83.02537 | 460 ft | 155 kts | 279° |
| 2026-05-08 18:47 | 28.20441 | -83.03745 | 449 ft | 154 kts | 279° |
| 2026-05-08 18:48 | 28.20595 | -83.04932 | 447 ft | 153 kts | 279° |
| 2026-05-08 18:48 | 28.20766 | -83.06118 | 442 ft | 156 kts | 279° |
| 2026-05-08 18:48 | 28.20837 | -83.07249 | 451 ft | 128 kts | 264° |
| 2026-05-08 18:48 | 28.20659 | -83.08139 | 385 ft | 106 kts | 256° |
| 2026-05-08 18:49 | 28.20662 | -83.08872 | 328 ft | 79 kts | 310° |
| 2026-05-08 18:49 | 28.21088 | -83.09297 | 243 ft | 82 kts | 320° |
| 2026-05-08 18:49 | 28.21513 | -83.09719 | 195 ft | 82 kts | 324° |
| 2026-05-08 18:49 | 28.21916 | -83.09628 | 243 ft | 68 kts | 95° |
| 2026-05-08 18:50 | 28.21632 | -83.09200 | 196 ft | 74 kts | 147° |
| 2026-05-08 18:50 | 28.21212 | -83.08876 | 190 ft | 71 kts | 147° |
| 2026-05-08 18:50 | 28.20901 | -83.08709 | 136 ft | 14 kts | 104° |
| 2026-05-08 18:50 | 28.20882 | -83.08688 | 42 ft | 5 kts | 102° |
| 2026-05-08 18:51 | 28.20869 | -83.08653 | 65 ft | 5 kts | 119° |
| 2026-05-08 18:51 | 28.20853 | -83.08618 | 63 ft | 5 kts | 115° |
| 2026-05-08 18:51 | 28.20845 | -83.08602 | 64 ft | 0 kts | 113° |
| 2026-05-08 18:52 | 28.20846 | -83.08602 | 65 ft | 0 kts | 111° |
| 2026-05-08 18:53 | 28.20847 | -83.08602 | 29 ft | 0 kts | 110° |
| 2026-05-08 18:54 | 28.20847 | -83.08603 | 26 ft | 0 kts | 110° |
| 2026-05-08 18:55 | 28.20848 | -83.08603 | 28 ft | 0 kts | 110° |
| 2026-05-08 18:55 | 28.20849 | -83.08603 | 28 ft | 0 kts | 110° |
| 2026-05-08 18:56 | 28.20849 | -83.08604 | 47 ft | 0 kts | 109° |
| 2026-05-08 18:56 | 28.20850 | -83.08604 | 47 ft | 0 kts | 109° |
| 2026-05-08 18:56 | 28.20851 | -83.08604 | 47 ft | 0 kts | 109° |
| 2026-05-08 18:58 | 28.20852 | -83.08604 | 46 ft | 0 kts | 109° |
| 2026-05-08 18:58 | 28.20853 | -83.08604 | 46 ft | 0 kts | 109° |
| 2026-05-08 18:58 | 28.20852 | -83.08605 | 46 ft | 0 kts | 108° |
| 2026-05-08 18:58 | 28.20881 | -83.08550 | 205 ft | 29 kts | 44° |
| 2026-05-08 18:59 | 28.21015 | -83.07999 | 405 ft | 113 kts | 78° |
| 2026-05-08 18:59 | 28.21175 | -83.07043 | 507 ft | 119 kts | 76° |
| 2026-05-08 18:59 | 28.21383 | -83.06165 | 525 ft | 113 kts | 70° |
| 2026-05-08 18:59 | 28.21660 | -83.05300 | 524 ft | 113 kts | 68° |
| 2026-05-08 19:00 | 28.21845 | -83.04747 | 516 ft | 122 kts | 68° |
| 2026-05-08 19:00 | 28.22242 | -83.03585 | 522 ft | 123 kts | 67° |
| 2026-05-08 19:00 | 28.22453 | -83.02989 | 512 ft | 120 kts | 67° |
| 2026-05-08 19:00 | 28.22772 | -83.02142 | 517 ft | 121 kts | 67° |
| 2026-05-08 19:01 | 28.23066 | -83.01278 | 514 ft | 117 kts | 67° |
| 2026-05-08 19:01 | 28.23358 | -83.00400 | 526 ft | 120 kts | 67° |
| 2026-05-08 19:01 | 28.23745 | -82.99221 | 526 ft | 117 kts | 67° |
| 2026-05-08 19:01 | 28.24040 | -82.98327 | 517 ft | 120 kts | 67° |
| 2026-05-08 19:02 | 28.24233 | -82.97744 | 525 ft | 115 kts | 67° |
| 2026-05-08 19:02 | 28.24518 | -82.96883 | 525 ft | 114 kts | 67° |
| 2026-05-08 19:02 | 28.24792 | -82.95996 | 514 ft | 119 kts | 67° |
| 2026-05-08 19:02 | 28.25059 | -82.95131 | 516 ft | 117 kts | 67° |
| 2026-05-08 19:03 | 28.25339 | -82.94269 | 515 ft | 114 kts | 67° |
| 2026-05-08 19:03 | 28.25631 | -82.93398 | 524 ft | 116 kts | 67° |
| 2026-05-08 19:03 | 28.25923 | -82.92561 | 516 ft | 118 kts | 66° |
| 2026-05-08 19:03 | 28.26223 | -82.91693 | 523 ft | 113 kts | 67° |
| 2026-05-08 19:04 | 28.26579 | -82.90777 | 503 ft | 147 kts | 61° |
| 2026-05-08 19:04 | 28.27022 | -82.89766 | 519 ft | 132 kts | 61° |
| 2026-05-08 19:04 | 28.27409 | -82.88883 | 525 ft | 119 kts | 61° |
| 2026-05-08 19:04 | 28.27776 | -82.88050 | 522 ft | 121 kts | 61° |
| 2026-05-08 19:05 | 28.28132 | -82.87204 | 525 ft | 117 kts | 61° |
| 2026-05-08 19:05 | 28.28487 | -82.86351 | 523 ft | 120 kts | 61° |
| 2026-05-08 19:05 | 28.28829 | -82.85509 | 520 ft | 117 kts | 61° |
| 2026-05-08 19:05 | 28.29167 | -82.84694 | 521 ft | 116 kts | 61° |
| 2026-05-08 19:06 | 28.29519 | -82.83870 | 519 ft | 113 kts | 60° |
| 2026-05-08 19:06 | 28.29861 | -82.83029 | 523 ft | 114 kts | 60° |
| 2026-05-08 19:06 | 28.30206 | -82.82220 | 527 ft | 115 kts | 61° |
| 2026-05-08 19:06 | 28.30549 | -82.81415 | 511 ft | 118 kts | 61° |
| 2026-05-08 19:07 | 28.30905 | -82.80572 | 517 ft | 119 kts | 61° |
| 2026-05-08 19:07 | 28.31276 | -82.79729 | 519 ft | 120 kts | 61° |
| 2026-05-08 19:07 | 28.31654 | -82.78870 | 518 ft | 121 kts | 61° |
| 2026-05-08 19:07 | 28.32029 | -82.78021 | 527 ft | 122 kts | 61° |
| 2026-05-08 19:08 | 28.32424 | -82.77156 | 516 ft | 124 kts | 60° |
| 2026-05-08 19:08 | 28.32801 | -82.76278 | 529 ft | 124 kts | 60° |
| 2026-05-08 19:08 | 28.33191 | -82.75398 | 530 ft | 126 kts | 61° |
| 2026-05-08 19:08 | 28.33588 | -82.74499 | 515 ft | 128 kts | 59° |
| 2026-05-08 19:09 | 28.34006 | -82.73614 | 526 ft | 127 kts | 59° |
| 2026-05-08 19:09 | 28.34438 | -82.72704 | 419 ft | 127 kts | 61° |
| 2026-05-08 19:09 | 28.34740 | -82.71903 | 359 ft | 91 kts | 62° |
| 2026-05-08 19:09 | 28.34942 | -82.71288 | 341 ft | 79 kts | 72° |
| 2026-05-08 19:10 | 28.35070 | -82.70727 | 280 ft | 66 kts | 67° |
| 2026-05-08 19:10 | 28.35175 | -82.70222 | 336 ft | 68 kts | 56° |
| 2026-05-08 19:10 | 28.35476 | -82.69941 | 261 ft | 52 kts | 13° |
| 2026-05-08 19:10 | 28.35770 | -82.69810 | 219 ft | 47 kts | 22° |
| 2026-05-08 19:11 | 28.36105 | -82.69606 | 204 ft | 47 kts | 25° |
| 2026-05-08 19:11 | 28.36232 | -82.69530 | 158 ft | 10 kts | 40° |
| 2026-05-08 19:11 | 28.36295 | -82.69458 | 132 ft | 22 kts | 47° |
| 2026-05-08 19:11 | 28.36416 | -82.69305 | 170 ft | 25 kts | 42° |
| 2026-05-08 19:12 | 28.36472 | -82.69241 | 148 ft | 7 kts | 39° |
| 2026-05-08 19:12 | 28.36457 | -82.69117 | 161 ft | 40 kts | 128° |
| 2026-05-08 19:12 | 28.36306 | -82.68911 | 114 ft | 26 kts | 112° |
| 2026-05-08 19:12 | 28.36231 | -82.68825 | 48 ft | 12 kts | 31° |
| 2026-05-08 19:13 | 28.36239 | -82.68796 | 27 ft | 2 kts | 301° |
| 2026-05-08 19:13 | 28.36242 | -82.68801 | 17 ft | 0 kts | 301° |
| 2026-05-08 19:14 | 28.36240 | -82.68827 | 86 ft | 11 kts | 238° |
| 2026-05-08 19:15 | 28.36019 | -82.68885 | 274 ft | 60 kts | 184° |
| 2026-05-08 19:15 | 28.35400 | -82.68903 | 664 ft | 118 kts | 189° |
| 2026-05-08 19:15 | 28.34505 | -82.69004 | 687 ft | 135 kts | 191° |
| 2026-05-08 19:15 | 28.33571 | -82.69108 | 704 ft | 137 kts | 186° |
| 2026-05-08 19:16 | 28.32605 | -82.69039 | 704 ft | 139 kts | 181° |
| 2026-05-08 19:16 | 28.31645 | -82.68991 | 720 ft | 138 kts | 183° |
| 2026-05-08 19:16 | 28.30695 | -82.68970 | 709 ft | 136 kts | 183° |
| 2026-05-08 19:16 | 28.29749 | -82.68935 | 718 ft | 136 kts | 183° |
| 2026-05-08 19:17 | 28.28799 | -82.68926 | 720 ft | 135 kts | 182° |
| 2026-05-08 19:17 | 28.27858 | -82.68911 | 719 ft | 136 kts | 182° |
| 2026-05-08 19:17 | 28.26902 | -82.68878 | 717 ft | 137 kts | 181° |
| 2026-05-08 19:17 | 28.25969 | -82.68844 | 720 ft | 135 kts | 180° |
| 2026-05-08 19:18 | 28.25038 | -82.68806 | 721 ft | 135 kts | 180° |
| 2026-05-08 19:18 | 28.24085 | -82.68797 | 720 ft | 137 kts | 182° |
| 2026-05-08 19:18 | 28.23135 | -82.68776 | 728 ft | 137 kts | 181° |
| 2026-05-08 19:18 | 28.22188 | -82.68774 | 723 ft | 136 kts | 183° |
| 2026-05-08 19:19 | 28.21231 | -82.68781 | 728 ft | 136 kts | 184° |
| 2026-05-08 19:19 | 28.20278 | -82.68775 | 734 ft | 137 kts | 184° |
| 2026-05-08 19:19 | 28.19326 | -82.68744 | 727 ft | 138 kts | 184° |
| 2026-05-08 19:19 | 28.18354 | -82.68713 | 724 ft | 138 kts | 185° |
| 2026-05-08 19:20 | 28.17389 | -82.68713 | 727 ft | 138 kts | 185° |
| 2026-05-08 19:20 | 28.17063 | -82.68712 | 726 ft | 138 kts | 184° |
| 2026-05-08 19:20 | 28.15494 | -82.68711 | 728 ft | 135 kts | 183° |
| 2026-05-08 19:20 | 28.14566 | -82.68707 | 727 ft | 134 kts | 183° |
| 2026-05-08 19:21 | 28.13631 | -82.68723 | 730 ft | 135 kts | 184° |
| 2026-05-08 19:21 | 28.12696 | -82.68758 | 723 ft | 134 kts | 185° |
| 2026-05-08 19:21 | 28.11781 | -82.68802 | 726 ft | 132 kts | 186° |
| 2026-05-08 19:21 | 28.10865 | -82.68846 | 728 ft | 132 kts | 185° |
| 2026-05-08 19:22 | 28.09943 | -82.68874 | 718 ft | 134 kts | 184° |